sensor_id;sensor_type;location;lat;lon;timestamp;temperature;humidity
22436;DHT22;11385;50.822;4.324;2022-10-16T00:02:19;15.20;99.90
22436;DHT22;11385;50.822;4.324;2022-10-16T00:04:45;15.20;99.90
22436;DHT22;11385;50.822;4.324;2022-10-16T00:07:12;15.20;99.90
22436;DHT22;11385;50.822;4.324;2022-10-16T00:09:39;15.20;99.90
22436;DHT22;11385;50.822;4.324;2022-10-16T00:12:06;14.90;99.90
22436;DHT22;11385;50.822;4.324;2022-10-16T00:14:33;15.00;99.90
22436;DHT22;11385;50.822;4.324;2022-10-16T00:17:00;15.00;99.90
22436;DHT22;11385;50.822;4.324;2022-10-16T00:19:26;15.20;99.90
22436;DHT22;11385;50.822;4.324;2022-10-16T00:21:53;15.20;99.90
22436;DHT22;11385;50.822;4.324;2022-10-16T00:24:19;15.20;99.90
22436;DHT22;11385;50.822;4.324;2022-10-16T00:26:49;15.00;99.90
22436;DHT22;11385;50.822;4.324;2022-10-16T00:29:16;14.90;99.90
22436;DHT22;11385;50.822;4.324;2022-10-16T00:31:42;14.90;99.90
22436;DHT22;11385;50.822;4.324;2022-10-16T00:34:09;15.00;99.90
22436;DHT22;11385;50.822;4.324;2022-10-16T00:36:35;14.90;99.90
22436;DHT22;11385;50.822;4.324;2022-10-16T00:39:02;15.00;99.90
22436;DHT22;11385;50.822;4.324;2022-10-16T00:41:29;15.00;99.90
22436;DHT22;11385;50.822;4.324;2022-10-16T00:44:00;15.10;99.90
22436;DHT22;11385;50.822;4.324;2022-10-16T00:46:33;15.20;99.90
22436;DHT22;11385;50.822;4.324;2022-10-16T00:49:16;15.10;99.90
22436;DHT22;11385;50.822;4.324;2022-10-16T00:51:45;15.10;99.90
22436;DHT22;11385;50.822;4.324;2022-10-16T00:54:21;15.10;99.90
22436;DHT22;11385;50.822;4.324;2022-10-16T00:56:49;15.00;99.90
22436;DHT22;11385;50.822;4.324;2022-10-16T00:59:50;15.00;99.90
22436;DHT22;11385;50.822;4.324;2022-10-16T01:02:04;14.90;99.90
22436;DHT22;11385;50.822;4.324;2022-10-16T01:04:35;15.00;99.90
22436;DHT22;11385;50.822;4.324;2022-10-16T01:07:23;15.00;99.90
22436;DHT22;11385;50.822;4.324;2022-10-16T01:10:14;14.80;99.90
22436;DHT22;11385;50.822;4.324;2022-10-16T01:12:45;14.80;99.90
22436;DHT22;11385;50.822;4.324;2022-10-16T01:15:20;14.80;99.90
22436;DHT22;11385;50.822;4.324;2022-10-16T01:17:53;14.70;99.90
22436;DHT22;11385;50.822;4.324;2022-10-16T01:20:32;14.80;99.90
22436;DHT22;11385;50.822;4.324;2022-10-16T01:23:15;14.90;99.90
22436;DHT22;11385;50.822;4.324;2022-10-16T01:25:59;14.90;99.90
22436;DHT22;11385;50.822;4.324;2022-10-16T01:28:34;14.90;99.90
22436;DHT22;11385;50.822;4.324;2022-10-16T01:31:02;14.90;99.90
22436;DHT22;11385;50.822;4.324;2022-10-16T01:33:38;14.80;99.90
22436;DHT22;11385;50.822;4.324;2022-10-16T01:36:11;14.80;99.90
22436;DHT22;11385;50.822;4.324;2022-10-16T01:38:40;14.70;99.90
22436;DHT22;11385;50.822;4.324;2022-10-16T01:41:19;14.60;99.90
22436;DHT22;11385;50.822;4.324;2022-10-16T01:43:48;14.60;99.90
22436;DHT22;11385;50.822;4.324;2022-10-16T01:46:18;14.70;99.90
22436;DHT22;11385;50.822;4.324;2022-10-16T01:48:46;14.70;99.90
22436;DHT22;11385;50.822;4.324;2022-10-16T01:51:15;14.70;99.90
22436;DHT22;11385;50.822;4.324;2022-10-16T01:53:46;14.50;99.90
22436;DHT22;11385;50.822;4.324;2022-10-16T01:56:16;14.50;99.90
22436;DHT22;11385;50.822;4.324;2022-10-16T01:58:47;14.60;99.90
22436;DHT22;11385;50.822;4.324;2022-10-16T02:01:17;14.70;99.90
22436;DHT22;11385;50.822;4.324;2022-10-16T02:03:46;14.70;99.90
22436;DHT22;11385;50.822;4.324;2022-10-16T02:06:13;14.80;99.90
22436;DHT22;11385;50.822;4.324;2022-10-16T02:08:39;14.60;99.90
22436;DHT22;11385;50.822;4.324;2022-10-16T02:11:08;14.60;99.90
22436;DHT22;11385;50.822;4.324;2022-10-16T02:13:40;14.60;99.90
22436;DHT22;11385;50.822;4.324;2022-10-16T02:16:09;14.60;99.90
22436;DHT22;11385;50.822;4.324;2022-10-16T02:18:36;14.70;99.90
22436;DHT22;11385;50.822;4.324;2022-10-16T02:21:13;14.70;99.90
22436;DHT22;11385;50.822;4.324;2022-10-16T02:23:57;14.80;99.90
22436;DHT22;11385;50.822;4.324;2022-10-16T02:26:28;14.90;99.90
22436;DHT22;11385;50.822;4.324;2022-10-16T02:28:59;14.70;99.90
22436;DHT22;11385;50.822;4.324;2022-10-16T02:31:28;14.60;99.90
22436;DHT22;11385;50.822;4.324;2022-10-16T02:33:58;14.60;99.90
22436;DHT22;11385;50.822;4.324;2022-10-16T02:36:26;14.60;99.90
22436;DHT22;11385;50.822;4.324;2022-10-16T02:38:53;14.60;99.90
22436;DHT22;11385;50.822;4.324;2022-10-16T02:41:22;14.70;99.90
22436;DHT22;11385;50.822;4.324;2022-10-16T02:43:49;14.60;99.90
22436;DHT22;11385;50.822;4.324;2022-10-16T02:46:17;14.60;99.90
22436;DHT22;11385;50.822;4.324;2022-10-16T02:48:44;14.70;99.90
22436;DHT22;11385;50.822;4.324;2022-10-16T02:51:11;14.70;99.90
22436;DHT22;11385;50.822;4.324;2022-10-16T02:53:38;14.60;99.90
22436;DHT22;11385;50.822;4.324;2022-10-16T02:56:04;14.70;99.90
22436;DHT22;11385;50.822;4.324;2022-10-16T02:58:31;14.70;99.90
22436;DHT22;11385;50.822;4.324;2022-10-16T03:00:57;14.70;99.90
22436;DHT22;11385;50.822;4.324;2022-10-16T03:03:24;14.80;99.90
22436;DHT22;11385;50.822;4.324;2022-10-16T03:05:51;14.80;99.90
22436;DHT22;11385;50.822;4.324;2022-10-16T03:08:17;14.60;99.90
22436;DHT22;11385;50.822;4.324;2022-10-16T03:10:46;14.50;99.90
22436;DHT22;11385;50.822;4.324;2022-10-16T03:13:13;14.50;99.90
22436;DHT22;11385;50.822;4.324;2022-10-16T03:15:39;14.60;99.90
22436;DHT22;11385;50.822;4.324;2022-10-16T03:18:06;14.60;99.90
22436;DHT22;11385;50.822;4.324;2022-10-16T03:20:33;14.60;99.90
22436;DHT22;11385;50.822;4.324;2022-10-16T03:22:59;14.60;99.90
22436;DHT22;11385;50.822;4.324;2022-10-16T03:25:26;14.60;99.90
22436;DHT22;11385;50.822;4.324;2022-10-16T03:27:53;14.60;99.90
22436;DHT22;11385;50.822;4.324;2022-10-16T03:30:19;14.60;99.90
22436;DHT22;11385;50.822;4.324;2022-10-16T03:32:47;14.80;99.90
22436;DHT22;11385;50.822;4.324;2022-10-16T03:35:13;14.80;99.90
22436;DHT22;11385;50.822;4.324;2022-10-16T03:37:40;14.60;99.90
22436;DHT22;11385;50.822;4.324;2022-10-16T03:40:07;14.70;99.90
22436;DHT22;11385;50.822;4.324;2022-10-16T03:42:34;14.70;99.90
22436;DHT22;11385;50.822;4.324;2022-10-16T03:45:00;14.60;99.90
22436;DHT22;11385;50.822;4.324;2022-10-16T03:47:27;14.60;99.90
22436;DHT22;11385;50.822;4.324;2022-10-16T03:49:53;14.50;99.90
22436;DHT22;11385;50.822;4.324;2022-10-16T03:52:20;14.60;99.90
22436;DHT22;11385;50.822;4.324;2022-10-16T03:54:47;14.40;99.90
22436;DHT22;11385;50.822;4.324;2022-10-16T03:57:14;14.40;99.90
22436;DHT22;11385;50.822;4.324;2022-10-16T03:59:40;14.50;99.90
22436;DHT22;11385;50.822;4.324;2022-10-16T04:02:07;14.40;99.90
22436;DHT22;11385;50.822;4.324;2022-10-16T04:04:34;14.50;99.90
22436;DHT22;11385;50.822;4.324;2022-10-16T04:07:00;14.40;99.90
22436;DHT22;11385;50.822;4.324;2022-10-16T04:09:27;14.40;99.90
22436;DHT22;11385;50.822;4.324;2022-10-16T04:11:54;14.50;99.90
22436;DHT22;11385;50.822;4.324;2022-10-16T04:14:21;14.50;99.90
22436;DHT22;11385;50.822;4.324;2022-10-16T04:16:47;14.50;99.90
22436;DHT22;11385;50.822;4.324;2022-10-16T04:19:14;14.60;99.90
22436;DHT22;11385;50.822;4.324;2022-10-16T04:21:41;14.60;99.90
22436;DHT22;11385;50.822;4.324;2022-10-16T04:24:07;14.60;99.90
22436;DHT22;11385;50.822;4.324;2022-10-16T04:26:34;14.50;99.90
22436;DHT22;11385;50.822;4.324;2022-10-16T04:29:01;14.50;99.90
22436;DHT22;11385;50.822;4.324;2022-10-16T04:37:11;14.50;99.90
22436;DHT22;11385;50.822;4.324;2022-10-16T04:39:37;14.60;99.90
22436;DHT22;11385;50.822;4.324;2022-10-16T04:42:04;14.40;99.90
22436;DHT22;11385;50.822;4.324;2022-10-16T04:44:31;14.50;99.90
22436;DHT22;11385;50.822;4.324;2022-10-16T04:46:57;14.50;99.90
22436;DHT22;11385;50.822;4.324;2022-10-16T04:49:24;14.50;99.90
22436;DHT22;11385;50.822;4.324;2022-10-16T04:51:50;14.50;99.90
22436;DHT22;11385;50.822;4.324;2022-10-16T04:54:17;14.40;99.90
22436;DHT22;11385;50.822;4.324;2022-10-16T04:56:44;14.50;99.90
22436;DHT22;11385;50.822;4.324;2022-10-16T04:59:16;14.60;99.90
22436;DHT22;11385;50.822;4.324;2022-10-16T05:01:43;14.50;99.90
22436;DHT22;11385;50.822;4.324;2022-10-16T05:04:11;14.50;99.90
22436;DHT22;11385;50.822;4.324;2022-10-16T05:06:38;14.50;99.90
22436;DHT22;11385;50.822;4.324;2022-10-16T05:09:05;14.50;99.90
22436;DHT22;11385;50.822;4.324;2022-10-16T05:11:32;14.50;99.90
22436;DHT22;11385;50.822;4.324;2022-10-16T05:13:59;14.50;99.90
22436;DHT22;11385;50.822;4.324;2022-10-16T05:16:25;14.40;99.90
22436;DHT22;11385;50.822;4.324;2022-10-16T05:18:52;14.30;99.90
22436;DHT22;11385;50.822;4.324;2022-10-16T05:21:20;14.40;99.90
22436;DHT22;11385;50.822;4.324;2022-10-16T05:23:47;14.40;99.90
22436;DHT22;11385;50.822;4.324;2022-10-16T05:26:14;14.40;99.90
22436;DHT22;11385;50.822;4.324;2022-10-16T05:28:41;14.30;99.90
22436;DHT22;11385;50.822;4.324;2022-10-16T05:31:08;14.20;99.90
22436;DHT22;11385;50.822;4.324;2022-10-16T05:33:36;14.20;99.90
22436;DHT22;11385;50.822;4.324;2022-10-16T05:36:04;14.20;99.90
22436;DHT22;11385;50.822;4.324;2022-10-16T05:38:32;14.20;99.90
22436;DHT22;11385;50.822;4.324;2022-10-16T05:40:58;14.30;99.90
22436;DHT22;11385;50.822;4.324;2022-10-16T05:43:27;14.10;99.90
22436;DHT22;11385;50.822;4.324;2022-10-16T05:45:56;14.10;99.90
22436;DHT22;11385;50.822;4.324;2022-10-16T05:48:24;14.10;99.90
22436;DHT22;11385;50.822;4.324;2022-10-16T05:50:58;14.10;99.90
22436;DHT22;11385;50.822;4.324;2022-10-16T05:53:24;14.10;99.90
22436;DHT22;11385;50.822;4.324;2022-10-16T05:55:52;14.10;99.90
22436;DHT22;11385;50.822;4.324;2022-10-16T05:58:19;14.20;99.90
22436;DHT22;11385;50.822;4.324;2022-10-16T06:03:21;14.20;99.90
22436;DHT22;11385;50.822;4.324;2022-10-16T06:05:47;14.20;99.90
22436;DHT22;11385;50.822;4.324;2022-10-16T06:08:14;14.10;99.90
22436;DHT22;11385;50.822;4.324;2022-10-16T06:10:42;14.10;99.90
22436;DHT22;11385;50.822;4.324;2022-10-16T06:13:10;14.10;99.90
22436;DHT22;11385;50.822;4.324;2022-10-16T06:15:39;14.10;99.90
22436;DHT22;11385;50.822;4.324;2022-10-16T06:18:09;14.20;99.90
22436;DHT22;11385;50.822;4.324;2022-10-16T06:20:36;14.10;99.90
22436;DHT22;11385;50.822;4.324;2022-10-16T06:23:03;14.20;99.90
22436;DHT22;11385;50.822;4.324;2022-10-16T06:25:31;14.20;99.90
22436;DHT22;11385;50.822;4.324;2022-10-16T06:27:58;14.30;99.90
22436;DHT22;11385;50.822;4.324;2022-10-16T06:30:25;14.20;99.90
22436;DHT22;11385;50.822;4.324;2022-10-16T06:32:51;14.30;99.90
22436;DHT22;11385;50.822;4.324;2022-10-16T06:35:18;14.40;99.90
22436;DHT22;11385;50.822;4.324;2022-10-16T06:37:44;14.50;99.90
22436;DHT22;11385;50.822;4.324;2022-10-16T06:40:12;14.50;99.90
22436;DHT22;11385;50.822;4.324;2022-10-16T06:42:41;14.50;99.90
22436;DHT22;11385;50.822;4.324;2022-10-16T06:45:08;14.40;99.90
22436;DHT22;11385;50.822;4.324;2022-10-16T06:47:35;14.50;99.90
22436;DHT22;11385;50.822;4.324;2022-10-16T06:50:02;14.60;99.90
22436;DHT22;11385;50.822;4.324;2022-10-16T06:52:29;14.60;99.90
22436;DHT22;11385;50.822;4.324;2022-10-16T06:54:56;14.70;99.90
22436;DHT22;11385;50.822;4.324;2022-10-16T06:57:23;14.80;99.90
22436;DHT22;11385;50.822;4.324;2022-10-16T06:59:49;14.70;99.90
22436;DHT22;11385;50.822;4.324;2022-10-16T07:02:16;14.80;99.90
22436;DHT22;11385;50.822;4.324;2022-10-16T07:04:42;14.60;99.90
22436;DHT22;11385;50.822;4.324;2022-10-16T07:07:09;14.60;99.90
22436;DHT22;11385;50.822;4.324;2022-10-16T07:09:36;14.60;99.90
22436;DHT22;11385;50.822;4.324;2022-10-16T07:12:03;14.60;99.90
22436;DHT22;11385;50.822;4.324;2022-10-16T07:14:29;14.50;99.90
22436;DHT22;11385;50.822;4.324;2022-10-16T07:16:56;14.50;99.90
22436;DHT22;11385;50.822;4.324;2022-10-16T07:19:23;14.50;99.90
22436;DHT22;11385;50.822;4.324;2022-10-16T07:21:51;14.50;99.90
22436;DHT22;11385;50.822;4.324;2022-10-16T07:24:17;14.60;99.90
22436;DHT22;11385;50.822;4.324;2022-10-16T07:26:45;14.40;99.90
22436;DHT22;11385;50.822;4.324;2022-10-16T07:29:16;14.50;99.90
22436;DHT22;11385;50.822;4.324;2022-10-16T07:31:43;14.50;99.90
22436;DHT22;11385;50.822;4.324;2022-10-16T07:34:12;14.60;99.90
22436;DHT22;11385;50.822;4.324;2022-10-16T07:36:40;14.70;99.90
22436;DHT22;11385;50.822;4.324;2022-10-16T07:39:07;14.70;99.90
22436;DHT22;11385;50.822;4.324;2022-10-16T07:41:34;14.70;99.90
22436;DHT22;11385;50.822;4.324;2022-10-16T07:44:03;14.80;99.90
22436;DHT22;11385;50.822;4.324;2022-10-16T07:46:30;14.80;99.90
22436;DHT22;11385;50.822;4.324;2022-10-16T07:48:57;14.60;99.90
22436;DHT22;11385;50.822;4.324;2022-10-16T07:51:25;14.60;99.90
22436;DHT22;11385;50.822;4.324;2022-10-16T07:53:52;14.60;99.90
22436;DHT22;11385;50.822;4.324;2022-10-16T07:56:20;14.60;99.90
22436;DHT22;11385;50.822;4.324;2022-10-16T07:58:47;14.60;99.90
22436;DHT22;11385;50.822;4.324;2022-10-16T08:01:16;14.60;99.90
22436;DHT22;11385;50.822;4.324;2022-10-16T08:03:45;14.70;99.90
22436;DHT22;11385;50.822;4.324;2022-10-16T08:06:13;14.70;99.90
22436;DHT22;11385;50.822;4.324;2022-10-16T08:08:39;14.70;99.90
22436;DHT22;11385;50.822;4.324;2022-10-16T08:11:07;14.90;99.90
22436;DHT22;11385;50.822;4.324;2022-10-16T08:13:34;14.90;99.90
22436;DHT22;11385;50.822;4.324;2022-10-16T08:16:00;15.10;99.90
22436;DHT22;11385;50.822;4.324;2022-10-16T08:18:27;15.20;99.90
22436;DHT22;11385;50.822;4.324;2022-10-16T08:20:56;15.10;99.90
22436;DHT22;11385;50.822;4.324;2022-10-16T08:23:24;15.30;99.90
22436;DHT22;11385;50.822;4.324;2022-10-16T08:25:53;15.30;99.90
22436;DHT22;11385;50.822;4.324;2022-10-16T08:28:20;15.30;99.90
22436;DHT22;11385;50.822;4.324;2022-10-16T08:30:47;15.40;99.90
22436;DHT22;11385;50.822;4.324;2022-10-16T08:33:14;15.30;99.90
22436;DHT22;11385;50.822;4.324;2022-10-16T08:35:41;15.30;99.90
22436;DHT22;11385;50.822;4.324;2022-10-16T08:38:07;15.20;99.90
22436;DHT22;11385;50.822;4.324;2022-10-16T08:40:36;15.40;99.90
22436;DHT22;11385;50.822;4.324;2022-10-16T08:43:26;15.50;99.90
22436;DHT22;11385;50.822;4.324;2022-10-16T08:46:36;15.50;99.90
22436;DHT22;11385;50.822;4.324;2022-10-16T08:48:53;15.60;99.90
22436;DHT22;11385;50.822;4.324;2022-10-16T08:51:25;15.60;99.90
22436;DHT22;11385;50.822;4.324;2022-10-16T08:53:58;15.60;99.90
22436;DHT22;11385;50.822;4.324;2022-10-16T08:56:26;15.60;99.90
22436;DHT22;11385;50.822;4.324;2022-10-16T08:58:54;15.60;99.90
22436;DHT22;11385;50.822;4.324;2022-10-16T09:01:35;15.80;99.90
22436;DHT22;11385;50.822;4.324;2022-10-16T09:04:30;15.90;99.90
22436;DHT22;11385;50.822;4.324;2022-10-16T09:06:50;16.00;99.90
22436;DHT22;11385;50.822;4.324;2022-10-16T09:12:26;15.90;99.90
22436;DHT22;11385;50.822;4.324;2022-10-16T09:17:50;16.10;99.90
22436;DHT22;11385;50.822;4.324;2022-10-16T09:20:26;16.10;99.90
22436;DHT22;11385;50.822;4.324;2022-10-16T09:25:26;16.00;99.90
22436;DHT22;11385;50.822;4.324;2022-10-16T09:27:53;16.20;99.90
22436;DHT22;11385;50.822;4.324;2022-10-16T09:30:21;16.30;99.90
22436;DHT22;11385;50.822;4.324;2022-10-16T09:32:51;16.30;99.90
22436;DHT22;11385;50.822;4.324;2022-10-16T09:35:22;16.40;99.90
22436;DHT22;11385;50.822;4.324;2022-10-16T09:37:51;16.40;99.90
22436;DHT22;11385;50.822;4.324;2022-10-16T09:40:28;16.60;99.90
22436;DHT22;11385;50.822;4.324;2022-10-16T09:43:01;16.50;99.90
22436;DHT22;11385;50.822;4.324;2022-10-16T09:45:27;16.60;99.90
22436;DHT22;11385;50.822;4.324;2022-10-16T09:47:54;16.70;99.90
22436;DHT22;11385;50.822;4.324;2022-10-16T09:50:25;16.70;99.90
22436;DHT22;11385;50.822;4.324;2022-10-16T09:53:04;16.80;99.90
22436;DHT22;11385;50.822;4.324;2022-10-16T09:55:31;16.90;99.90
22436;DHT22;11385;50.822;4.324;2022-10-16T09:57:58;17.00;99.90
22436;DHT22;11385;50.822;4.324;2022-10-16T10:00:25;17.00;99.90
22436;DHT22;11385;50.822;4.324;2022-10-16T10:02:53;17.00;99.90
22436;DHT22;11385;50.822;4.324;2022-10-16T10:05:24;17.10;99.90
22436;DHT22;11385;50.822;4.324;2022-10-16T10:07:58;17.10;99.90
22436;DHT22;11385;50.822;4.324;2022-10-16T10:10:28;17.00;99.90
22436;DHT22;11385;50.822;4.324;2022-10-16T10:12:55;17.10;99.90
22436;DHT22;11385;50.822;4.324;2022-10-16T10:15:23;17.00;99.90
22436;DHT22;11385;50.822;4.324;2022-10-16T10:17:53;17.00;99.90
22436;DHT22;11385;50.822;4.324;2022-10-16T10:20:37;17.00;99.90
22436;DHT22;11385;50.822;4.324;2022-10-16T10:23:22;17.20;99.90
22436;DHT22;11385;50.822;4.324;2022-10-16T10:25:57;17.10;99.90
22436;DHT22;11385;50.822;4.324;2022-10-16T10:29:01;17.00;99.90
22436;DHT22;11385;50.822;4.324;2022-10-16T10:31:17;17.10;99.90
22436;DHT22;11385;50.822;4.324;2022-10-16T10:33:52;17.20;99.90
22436;DHT22;11385;50.822;4.324;2022-10-16T10:36:27;17.40;99.90
22436;DHT22;11385;50.822;4.324;2022-10-16T10:38:59;17.50;99.90
22436;DHT22;11385;50.822;4.324;2022-10-16T10:41:51;17.60;99.90
22436;DHT22;11385;50.822;4.324;2022-10-16T10:44:52;17.80;99.90
22436;DHT22;11385;50.822;4.324;2022-10-16T10:47:43;18.10;99.90
22436;DHT22;11385;50.822;4.324;2022-10-16T10:55:39;18.00;99.90
22436;DHT22;11385;50.822;4.324;2022-10-16T10:58:19;18.30;99.90
22436;DHT22;11385;50.822;4.324;2022-10-16T11:00:54;18.50;99.90
22436;DHT22;11385;50.822;4.324;2022-10-16T11:06:15;18.60;99.90
22436;DHT22;11385;50.822;4.324;2022-10-16T11:08:47;18.80;99.90
22436;DHT22;11385;50.822;4.324;2022-10-16T11:11:20;18.70;99.90
22436;DHT22;11385;50.822;4.324;2022-10-16T11:13:59;18.70;99.90
22436;DHT22;11385;50.822;4.324;2022-10-16T11:16:36;18.70;99.90
22436;DHT22;11385;50.822;4.324;2022-10-16T11:19:12;18.80;99.90
22436;DHT22;11385;50.822;4.324;2022-10-16T11:21:47;19.00;99.90
22436;DHT22;11385;50.822;4.324;2022-10-16T11:24:20;19.20;99.90
22436;DHT22;11385;50.822;4.324;2022-10-16T11:26:48;18.90;99.90
22436;DHT22;11385;50.822;4.324;2022-10-16T11:29:20;19.00;99.90
22436;DHT22;11385;50.822;4.324;2022-10-16T11:31:52;19.20;99.90
22436;DHT22;11385;50.822;4.324;2022-10-16T11:34:28;19.20;99.90
22436;DHT22;11385;50.822;4.324;2022-10-16T11:37:04;19.30;99.90
22436;DHT22;11385;50.822;4.324;2022-10-16T11:39:30;19.60;99.90
22436;DHT22;11385;50.822;4.324;2022-10-16T11:42:10;19.60;99.90
22436;DHT22;11385;50.822;4.324;2022-10-16T11:44:46;19.70;99.90
22436;DHT22;11385;50.822;4.324;2022-10-16T11:47:37;19.50;99.90
22436;DHT22;11385;50.822;4.324;2022-10-16T11:52:49;19.30;99.90
22436;DHT22;11385;50.822;4.324;2022-10-16T11:55:18;19.20;99.90
22436;DHT22;11385;50.822;4.324;2022-10-16T11:57:52;19.10;99.90
22436;DHT22;11385;50.822;4.324;2022-10-16T12:00:35;19.20;99.90
22436;DHT22;11385;50.822;4.324;2022-10-16T12:03:14;19.30;99.90
22436;DHT22;11385;50.822;4.324;2022-10-16T12:06:05;19.30;99.90
22436;DHT22;11385;50.822;4.324;2022-10-16T12:08:30;19.40;99.90
22436;DHT22;11385;50.822;4.324;2022-10-16T12:13:35;19.60;99.90
22436;DHT22;11385;50.822;4.324;2022-10-16T12:16:22;19.60;99.90
22436;DHT22;11385;50.822;4.324;2022-10-16T12:18:49;19.90;99.90
22436;DHT22;11385;50.822;4.324;2022-10-16T12:21:17;19.70;99.90
22436;DHT22;11385;50.822;4.324;2022-10-16T12:23:50;19.40;99.90
22436;DHT22;11385;50.822;4.324;2022-10-16T12:26:25;19.40;99.90
22436;DHT22;11385;50.822;4.324;2022-10-16T12:28:53;19.50;99.90
22436;DHT22;11385;50.822;4.324;2022-10-16T12:31:21;19.70;99.90
22436;DHT22;11385;50.822;4.324;2022-10-16T12:34:04;19.70;99.90
22436;DHT22;11385;50.822;4.324;2022-10-16T12:36:32;20.00;99.90
22436;DHT22;11385;50.822;4.324;2022-10-16T12:39:01;20.20;99.90
22436;DHT22;11385;50.822;4.324;2022-10-16T12:41:31;20.60;99.90
22436;DHT22;11385;50.822;4.324;2022-10-16T12:43:58;20.80;99.90
22436;DHT22;11385;50.822;4.324;2022-10-16T12:46:39;20.80;99.90
22436;DHT22;11385;50.822;4.324;2022-10-16T12:51:57;20.60;99.90
22436;DHT22;11385;50.822;4.324;2022-10-16T12:54:38;20.60;99.90
22436;DHT22;11385;50.822;4.324;2022-10-16T12:59:53;20.70;99.90
22436;DHT22;11385;50.822;4.324;2022-10-16T13:05:22;21.00;99.90
22436;DHT22;11385;50.822;4.324;2022-10-16T13:08:14;21.10;99.90
22436;DHT22;11385;50.822;4.324;2022-10-16T13:11:00;21.30;99.90
22436;DHT22;11385;50.822;4.324;2022-10-16T13:15:02;21.10;99.90
22436;DHT22;11385;50.822;4.324;2022-10-16T13:16:46;21.40;99.90
22436;DHT22;11385;50.822;4.324;2022-10-16T13:19:23;21.00;99.90
22436;DHT22;11385;50.822;4.324;2022-10-16T13:24:42;20.90;99.90
22436;DHT22;11385;50.822;4.324;2022-10-16T13:27:15;20.80;99.90
22436;DHT22;11385;50.822;4.324;2022-10-16T13:29:41;21.00;99.90
22436;DHT22;11385;50.822;4.324;2022-10-16T13:32:10;21.00;99.90
22436;DHT22;11385;50.822;4.324;2022-10-16T13:34:46;21.00;99.90
22436;DHT22;11385;50.822;4.324;2022-10-16T13:37:19;20.70;99.90
22436;DHT22;11385;50.822;4.324;2022-10-16T13:39:47;20.80;99.90
22436;DHT22;11385;50.822;4.324;2022-10-16T13:42:24;20.90;99.90
22436;DHT22;11385;50.822;4.324;2022-10-16T13:44:54;21.10;99.90
22436;DHT22;11385;50.822;4.324;2022-10-16T13:47:23;21.10;99.90
22436;DHT22;11385;50.822;4.324;2022-10-16T13:50:11;20.70;99.90
22436;DHT22;11385;50.822;4.324;2022-10-16T13:52:38;20.50;99.90
22436;DHT22;11385;50.822;4.324;2022-10-16T13:55:13;20.60;99.90
22436;DHT22;11385;50.822;4.324;2022-10-16T13:57:40;20.70;99.90
22436;DHT22;11385;50.822;4.324;2022-10-16T14:00:17;20.80;99.90
22436;DHT22;11385;50.822;4.324;2022-10-16T14:02:50;20.70;99.90
22436;DHT22;11385;50.822;4.324;2022-10-16T14:05:16;20.30;99.90
22436;DHT22;11385;50.822;4.324;2022-10-16T14:07:43;20.40;99.90
22436;DHT22;11385;50.822;4.324;2022-10-16T14:10:19;20.30;99.90
22436;DHT22;11385;50.822;4.324;2022-10-16T14:12:55;19.90;99.90
22436;DHT22;11385;50.822;4.324;2022-10-16T14:15:22;20.00;99.90
22436;DHT22;11385;50.822;4.324;2022-10-16T14:17:50;20.10;99.90
22436;DHT22;11385;50.822;4.324;2022-10-16T14:20:20;20.20;99.90
22436;DHT22;11385;50.822;4.324;2022-10-16T14:22:57;20.40;99.90
22436;DHT22;11385;50.822;4.324;2022-10-16T14:25:26;20.30;99.90
22436;DHT22;11385;50.822;4.324;2022-10-16T14:28:02;20.40;99.90
22436;DHT22;11385;50.822;4.324;2022-10-16T14:30:31;20.20;99.90
22436;DHT22;11385;50.822;4.324;2022-10-16T14:33:00;20.40;99.90
22436;DHT22;11385;50.822;4.324;2022-10-16T14:35:33;20.30;99.90
22436;DHT22;11385;50.822;4.324;2022-10-16T14:38:02;20.30;99.90
22436;DHT22;11385;50.822;4.324;2022-10-16T14:40:31;20.20;99.90
22436;DHT22;11385;50.822;4.324;2022-10-16T14:43:00;20.30;99.90
22436;DHT22;11385;50.822;4.324;2022-10-16T14:45:29;20.30;99.90
22436;DHT22;11385;50.822;4.324;2022-10-16T14:48:00;20.30;99.90
22436;DHT22;11385;50.822;4.324;2022-10-16T14:50:27;20.10;99.90
22436;DHT22;11385;50.822;4.324;2022-10-16T14:52:54;20.30;99.90
22436;DHT22;11385;50.822;4.324;2022-10-16T14:55:22;20.40;99.90
22436;DHT22;11385;50.822;4.324;2022-10-16T14:57:49;20.40;99.90
22436;DHT22;11385;50.822;4.324;2022-10-16T15:00:21;20.40;99.90
22436;DHT22;11385;50.822;4.324;2022-10-16T15:02:48;20.40;99.90
22436;DHT22;11385;50.822;4.324;2022-10-16T15:05:18;20.50;99.90
22436;DHT22;11385;50.822;4.324;2022-10-16T15:07:46;20.40;99.90
22436;DHT22;11385;50.822;4.324;2022-10-16T15:10:14;20.60;99.90
22436;DHT22;11385;50.822;4.324;2022-10-16T15:12:43;20.70;99.90
22436;DHT22;11385;50.822;4.324;2022-10-16T15:15:38;20.80;99.90
22436;DHT22;11385;50.822;4.324;2022-10-16T15:18:07;20.70;99.90
22436;DHT22;11385;50.822;4.324;2022-10-16T15:20:35;20.60;99.90
22436;DHT22;11385;50.822;4.324;2022-10-16T15:23:04;20.20;99.90
22436;DHT22;11385;50.822;4.324;2022-10-16T15:25:37;20.20;99.90
22436;DHT22;11385;50.822;4.324;2022-10-16T15:28:05;20.20;99.90
22436;DHT22;11385;50.822;4.324;2022-10-16T15:30:33;20.20;99.90
22436;DHT22;11385;50.822;4.324;2022-10-16T15:33:00;20.20;99.90
22436;DHT22;11385;50.822;4.324;2022-10-16T15:35:26;20.20;99.90
22436;DHT22;11385;50.822;4.324;2022-10-16T15:37:53;20.10;99.90
22436;DHT22;11385;50.822;4.324;2022-10-16T15:40:21;20.10;99.90
22436;DHT22;11385;50.822;4.324;2022-10-16T15:42:50;20.10;99.90
22436;DHT22;11385;50.822;4.324;2022-10-16T15:45:16;20.10;99.90
22436;DHT22;11385;50.822;4.324;2022-10-16T15:47:45;20.10;99.90
22436;DHT22;11385;50.822;4.324;2022-10-16T15:50:13;20.20;99.90
22436;DHT22;11385;50.822;4.324;2022-10-16T15:52:42;20.10;99.90
22436;DHT22;11385;50.822;4.324;2022-10-16T15:55:10;20.10;99.90
22436;DHT22;11385;50.822;4.324;2022-10-16T15:57:37;19.90;99.90
22436;DHT22;11385;50.822;4.324;2022-10-16T16:00:07;19.70;99.90
22436;DHT22;11385;50.822;4.324;2022-10-16T16:02:34;19.70;99.90
22436;DHT22;11385;50.822;4.324;2022-10-16T16:05:01;19.60;99.90
22436;DHT22;11385;50.822;4.324;2022-10-16T16:07:28;19.60;99.90
22436;DHT22;11385;50.822;4.324;2022-10-16T16:09:54;19.70;99.90
22436;DHT22;11385;50.822;4.324;2022-10-16T16:12:21;19.70;99.90
22436;DHT22;11385;50.822;4.324;2022-10-16T16:14:48;19.60;99.90
22436;DHT22;11385;50.822;4.324;2022-10-16T16:17:15;19.60;99.90
22436;DHT22;11385;50.822;4.324;2022-10-16T16:19:41;19.60;99.90
22436;DHT22;11385;50.822;4.324;2022-10-16T16:22:08;19.50;99.90
22436;DHT22;11385;50.822;4.324;2022-10-16T16:24:34;19.50;99.90
22436;DHT22;11385;50.822;4.324;2022-10-16T16:27:01;19.40;99.90
22436;DHT22;11385;50.822;4.324;2022-10-16T16:29:28;19.50;99.90
22436;DHT22;11385;50.822;4.324;2022-10-16T16:31:55;19.40;99.90